Time,TemperatureF,DewpointF,PressureIn,WindDirection,WindDirectionDegrees,WindSpeedMPH,WindSpeedGustMPH,Humidity,HourlyPrecipIn,Conditions,Clouds,dailyrainin,SoftwareType,DateUTC
2013-01-03 00:02:00,10.0,-4.0,-100.00,NW,305,11.0,14.0,52,0.00,,,-99.99,,2013-01-03 07:02:00,
2013-01-03 00:12:00,10.0,-4.0,-100.00,NW,305,10.0,14.0,53,0.00,,,-99.99,,2013-01-03 07:12:00,
2013-01-03 00:22:00,9.0,-4.0,-100.00,WNW,291,8.0,11.0,54,0.00,,,-99.99,,2013-01-03 07:22:00,
2013-01-03 00:32:00,9.0,-4.0,-100.00,WNW,292,8.0,11.0,53,0.00,,,-99.99,,2013-01-03 07:32:00,
2013-01-03 00:42:00,7.0,-5.0,-100.00,NW,306,7.0,14.0,55,0.00,,,-99.99,,2013-01-03 07:42:00,
2013-01-03 00:52:00,8.0,-5.0,-100.00,NW,308,7.0,10.0,54,0.00,,,-99.99,,2013-01-03 07:52:00,
2013-01-03 01:02:00,8.0,-5.0,-100.00,NW,315,7.0,11.0,55,0.00,,,-99.99,,2013-01-03 08:02:00,
2013-01-03 01:12:00,8.0,-5.0,-100.00,NW,318,9.0,11.0,55,0.00,,,-99.99,,2013-01-03 08:12:00,
2013-01-03 01:22:00,7.0,-5.0,-100.00,NW,313,9.0,11.0,55,0.00,,,-99.99,,2013-01-03 08:22:00,
2013-01-03 01:32:00,5.0,-6.0,-100.00,NW,311,8.0,10.0,58,0.00,,,-99.99,,2013-01-03 08:32:00,
2013-01-03 01:42:00,5.0,-6.0,-100.00,WNW,299,7.0,8.0,58,0.00,,,-99.99,,2013-01-03 08:42:00,
2013-01-03 01:52:00,4.0,-7.0,-100.00,NW,305,7.0,9.0,59,0.00,,,-99.99,,2013-01-03 08:52:00,
2013-01-03 02:02:00,7.0,-5.0,-100.00,NW,319,9.0,11.0,57,0.00,,,-99.99,,2013-01-03 09:02:00,
2013-01-03 02:12:00,6.0,-6.0,-100.00,NW,320,9.0,11.0,57,0.00,,,-99.99,,2013-01-03 09:12:00,
2013-01-03 02:22:00,8.0,-5.0,-100.00,NW,320,10.0,12.0,54,0.00,,,-99.99,,2013-01-03 09:22:00,
2013-01-03 02:33:00,8.0,-5.0,-100.00,NW,318,11.0,12.0,56,0.00,,,-99.99,,2013-01-03 09:33:00,
2013-01-03 02:42:00,8.0,-5.0,-100.00,NW,320,9.0,11.0,55,0.00,,,-99.99,,2013-01-03 09:42:00,
2013-01-03 02:52:00,4.0,-8.0,-100.00,SW,222,4.0,9.0,56,0.00,,,-99.99,,2013-01-03 09:52:00,
2013-01-03 03:02:00,-3.0,-12.0,-100.00,South,172,6.0,11.0,66,0.00,,,-99.99,,2013-01-03 10:02:00,
2013-01-03 03:12:00,-2.0,-12.0,-100.00,SSE,152,8.0,11.0,64,0.00,,,-99.99,,2013-01-03 10:12:00,
2013-01-03 03:22:00,2.0,-9.0,-100.00,SSE,147,9.0,11.0,60,0.00,,,-99.99,,2013-01-03 10:22:00,
2013-01-03 03:32:00,0.0,-11.0,-100.00,ESE,121,9.0,12.0,58,0.00,,,-99.99,,2013-01-03 10:32:00,
2013-01-03 03:42:00,-4.0,-12.0,-100.00,ESE,112,4.0,8.0,70,0.00,,,-99.99,,2013-01-03 10:42:00,
2013-01-03 03:52:00,-4.0,-11.0,-100.00,SSE,152,2.0,7.0,72,0.00,,,-99.99,,2013-01-03 10:52:00,
2013-01-03 04:02:00,-4.0,-11.0,-100.00,SSW,198,1.0,6.0,71,0.00,,,-99.99,,2013-01-03 11:02:00,
2013-01-03 04:12:00,-4.0,-10.0,-100.00,West,264,1.0,6.0,73,0.00,,,-99.99,,2013-01-03 11:12:00,
2013-01-03 04:22:00,-4.0,-11.0,-100.00,WNW,294,3.0,9.0,71,0.00,,,-99.99,,2013-01-03 11:22:00,
2013-01-03 04:33:00,-2.0,-10.0,-100.00,NW,313,3.0,9.0,66,0.00,,,-99.99,,2013-01-03 11:33:00,
2013-01-03 04:42:00,-2.0,-10.0,-100.00,NW,316,2.0,9.0,69,0.00,,,-99.99,,2013-01-03 11:42:00,
2013-01-03 04:53:00,-3.0,-11.0,-100.00,NW,319,2.0,3.0,67,0.00,,,-99.99,,2013-01-03 11:53:00,
2013-01-03 05:02:00,-4.0,-11.0,-100.00,WNW,294,1.0,2.0,69,0.00,,,-99.99,,2013-01-03 12:02:00,
2013-01-03 05:12:00,-4.0,-11.0,-100.00,WNW,296,1.0,2.0,70,0.00,,,-99.99,,2013-01-03 12:12:00,
2013-01-03 05:22:00,-4.0,-11.0,-100.00,WNW,301,1.0,2.0,70,0.00,,,-99.99,,2013-01-03 12:22:00,
2013-01-03 05:32:00,-4.0,-11.0,-100.00,WSW,257,0.0,1.0,70,0.00,,,-99.99,,2013-01-03 12:32:00,
2013-01-03 05:42:00,-4.0,-11.0,-100.00,SW,216,0.0,2.0,71,0.00,,,-99.99,,2013-01-03 12:42:00,
2013-01-03 05:52:00,-5.0,-13.0,-100.00,WNW,287,1.0,4.0,70,0.00,,,-99.99,,2013-01-03 12:52:00,
2013-01-03 06:02:00,-5.0,-11.0,-100.00,WNW,302,3.0,4.0,73,0.00,,,-99.99,,2013-01-03 13:02:00,
2013-01-03 06:12:00,-4.0,-11.0,-100.00,NW,312,2.0,4.0,71,0.00,,,-99.99,,2013-01-03 13:12:00,
2013-01-03 06:22:00,-4.0,-11.0,-100.00,NW,313,2.0,5.0,71,0.00,,,-99.99,,2013-01-03 13:22:00,
2013-01-03 06:33:00,-4.0,-11.0,-100.00,NW,318,1.0,2.0,72,0.00,,,-99.99,,2013-01-03 13:33:00,
2013-01-03 06:42:00,-4.0,-11.0,-100.00,WNW,296,1.0,2.0,71,0.00,,,-99.99,,2013-01-03 13:42:00,
2013-01-03 06:52:00,-4.0,-11.0,-100.00,WNW,296,1.0,4.0,71,0.00,,,-99.99,,2013-01-03 13:52:00,
2013-01-03 07:03:00,-3.0,-11.0,-100.00,NW,312,1.0,2.0,70,0.00,,,-99.99,,2013-01-03 14:03:00,
2013-01-03 07:12:00,-3.0,-12.0,-100.00,WNW,288,1.0,2.0,67,0.00,,,-99.99,,2013-01-03 14:12:00,
2013-01-03 07:22:00,-5.0,-13.0,-100.00,WNW,284,1.0,2.0,67,0.00,,,-99.99,,2013-01-03 14:22:00,
2013-01-03 07:33:00,-4.0,-11.0,-100.00,NW,313,2.0,4.0,71,0.00,,,-99.99,,2013-01-03 14:33:00,
2013-01-03 07:42:00,-3.0,-10.0,-100.00,NNW,335,2.0,4.0,69,0.00,,,-99.99,,2013-01-03 14:42:00,
2013-01-03 07:53:00,-3.0,-11.0,-100.00,ESE,106,1.0,2.0,67,0.00,,,-99.99,,2013-01-03 14:53:00,
2013-01-03 08:03:00,-1.0,-10.0,-100.00,SE,140,0.0,4.0,64,0.00,,,-99.99,,2013-01-03 15:03:00,
2013-01-03 08:12:00,-1.0,-11.0,-100.00,ESE,113,0.0,2.0,62,0.00,,,-99.99,,2013-01-03 15:12:00,
2013-01-03 08:22:00,-2.0,-11.0,-100.00,West,265,0.0,1.0,62,0.00,,,-99.99,,2013-01-03 15:22:00,
2013-01-03 08:33:00,1.0,-9.0,-100.00,SW,222,0.0,2.0,63,0.00,,,-99.99,,2013-01-03 15:33:00,
2013-01-03 08:42:00,1.0,-11.0,-100.00,SSW,205,0.0,1.0,56,0.00,,,-99.99,,2013-01-03 15:42:00,
2013-01-03 08:53:00,0.0,-10.0,-100.00,South,171,1.0,2.0,60,0.00,,,-99.99,,2013-01-03 15:53:00,
2013-01-03 09:03:00,-1.0,-10.0,-100.00,WSW,257,1.0,3.0,63,0.00,,,-99.99,,2013-01-03 16:03:00,
2013-01-03 09:12:00,0.0,-10.0,-100.00,West,280,1.0,2.0,60,0.00,,,-99.99,,2013-01-03 16:12:00,
2013-01-03 09:22:00,3.0,-11.0,-100.00,North,359,1.0,2.0,51,0.00,,,-99.99,,2013-01-03 16:22:00,
2013-01-03 09:33:00,1.0,-10.0,-100.00,North,350,1.0,2.0,58,0.00,,,-99.99,,2013-01-03 16:33:00,
2013-01-03 09:43:00,5.0,-8.0,-100.00,NNE,14,1.0,2.0,56,0.00,,,-99.99,,2013-01-03 16:43:00,
2013-01-03 09:52:00,14.0,-7.0,-100.00,North,8,0.0,1.0,39,0.00,,,-99.99,,2013-01-03 16:52:00,
2013-01-03 10:03:00,9.0,-9.0,-100.00,NNE,16,1.0,2.0,43,0.00,,,-99.99,,2013-01-03 17:03:00,
2013-01-03 10:12:00,11.0,-8.0,-100.00,NNE,32,1.0,2.0,42,0.00,,,-99.99,,2013-01-03 17:12:00,
2013-01-03 10:22:00,11.0,-8.0,-100.00,East,88,1.0,3.0,41,0.00,,,-99.99,,2013-01-03 17:22:00,
2013-01-03 10:33:00,11.0,-8.0,-100.00,ESE,116,0.0,1.0,40,0.00,,,-99.99,,2013-01-03 17:33:00,
2013-01-03 10:42:00,7.0,-9.0,-100.00,ESE,107,1.0,2.0,46,0.00,,,-99.99,,2013-01-03 17:42:00,
2013-01-03 10:52:00,2.0,-7.0,-100.00,ENE,71,2.0,4.0,66,0.00,,,-99.99,,2013-01-03 17:52:00,
2013-01-03 11:03:00,4.0,-8.0,-100.00,ENE,72,1.0,2.0,57,0.00,,,-99.99,,2013-01-03 18:03:00,
2013-01-03 11:13:00,6.0,-7.0,-100.00,East,79,1.0,2.0,54,0.00,,,-99.99,,2013-01-03 18:13:00,
2013-01-03 11:22:00,8.0,-6.0,-100.00,West,275,1.0,4.0,52,0.00,,,-99.99,,2013-01-03 18:22:00,
2013-01-03 11:33:00,7.0,-4.0,-100.00,WNW,296,3.0,6.0,59,0.00,,,-99.99,,2013-01-03 18:33:00,
2013-01-03 11:42:00,8.0,-4.0,-100.00,WNW,288,4.0,6.0,57,0.00,,,-99.99,,2013-01-03 18:42:00,
2013-01-03 11:53:00,10.0,-3.0,-100.00,West,277,4.0,6.0,55,0.00,,,-99.99,,2013-01-03 18:53:00,
2013-01-03 12:03:00,11.0,-1.0,-100.00,West,270,4.0,6.0,58,0.00,,,-99.99,,2013-01-03 19:03:00,
2013-01-03 12:12:00,14.0,1.0,-100.00,West,271,2.0,4.0,56,0.00,,,-99.99,,2013-01-03 19:12:00,
2013-01-03 12:56:00,10.0,-1.0,-100.00,ENE,68,3.0,4.0,60,0.00,,,-99.99,,2013-01-03 19:56:00,
2013-01-03 13:03:00,10.0,1.0,-100.00,NE,44,3.0,4.0,67,0.00,,,-99.99,,2013-01-03 20:03:00,
2013-01-03 13:12:00,10.0,2.0,-100.00,NE,51,2.0,4.0,69,0.00,,,-99.99,,2013-01-03 20:12:00,
2013-01-03 13:22:00,12.0,4.0,-100.00,East,92,1.0,3.0,69,0.00,,,-99.99,,2013-01-03 20:22:00,
2013-01-03 13:33:00,14.0,3.0,-100.00,East,93,0.0,2.0,60,0.00,,,-99.99,,2013-01-03 20:33:00,
2013-01-03 13:42:00,13.0,3.0,-100.00,East,93,1.0,2.0,63,0.00,,,-99.99,,2013-01-03 20:42:00,
2013-01-03 13:53:00,13.0,4.0,-100.00,East,93,1.0,3.0,66,0.00,,,-99.99,,2013-01-03 20:53:00,
2013-01-03 14:02:00,14.0,5.0,-100.00,ESE,120,1.0,3.0,68,0.00,,,-99.99,,2013-01-03 21:02:00,
2013-01-03 14:12:00,15.0,5.0,-100.00,SSE,161,1.0,3.0,65,0.00,,,-99.99,,2013-01-03 21:12:00,
2013-01-03 14:22:00,12.0,5.0,-100.00,SSW,192,4.0,6.0,73,0.00,,,-99.99,,2013-01-03 21:22:00,
2013-01-03 14:36:00,15.0,5.0,-100.00,SSW,209,2.0,4.0,64,0.00,,,-99.99,,2013-01-03 21:36:00,
2013-01-03 14:47:00,13.0,3.0,-100.00,NW,306,1.0,4.0,63,0.00,,,-99.99,,2013-01-03 21:47:00,
2013-01-03 14:52:00,11.0,4.0,-100.00,ENE,65,2.0,4.0,70,0.00,,,-99.99,,2013-01-03 21:52:00,
2013-01-03 15:02:00,13.0,3.0,-100.00,ENE,72,1.0,4.0,65,0.00,,,-99.99,,2013-01-03 22:02:00,
2013-01-03 15:12:00,14.0,5.0,-100.00,ENE,78,1.0,2.0,65,0.00,,,-99.99,,2013-01-03 22:12:00,
2013-01-03 15:22:00,12.0,0.0,-100.00,East,79,2.0,3.0,60,0.00,,,-99.99,,2013-01-03 22:22:00,
2013-01-03 15:33:00,10.0,2.0,-100.00,ENE,65,3.0,4.0,69,0.00,,,-99.99,,2013-01-03 22:33:00,
2013-01-03 15:42:00,11.0,3.0,-100.00,NE,54,3.0,4.0,71,0.00,,,-99.99,,2013-01-03 22:42:00,
2013-01-03 15:52:00,16.0,2.0,-100.00,NNE,32,1.0,2.0,53,0.00,,,-99.99,,2013-01-03 22:52:00,
2013-01-03 16:02:00,12.0,1.0,-100.00,SE,144,1.0,3.0,61,0.00,,,-99.99,,2013-01-03 23:02:00,
2013-01-03 16:12:00,12.0,2.0,-100.00,South,185,1.0,2.0,62,0.00,,,-99.99,,2013-01-03 23:12:00,
2013-01-03 16:22:00,10.0,1.0,-100.00,South,184,2.0,4.0,68,0.00,,,-99.99,,2013-01-03 23:22:00,
2013-01-03 16:32:00,9.0,1.0,-100.00,South,178,4.0,6.0,68,0.00,,,-99.99,,2013-01-03 23:32:00,
2013-01-03 16:42:00,9.0,-2.0,-100.00,South,188,4.0,7.0,63,0.00,,,-99.99,,2013-01-03 23:42:00,
2013-01-03 16:52:00,9.0,-1.0,-100.00,SSW,196,4.0,7.0,62,0.00,,,-99.99,,2013-01-03 23:52:00,
2013-01-03 17:03:00,8.0,-2.0,-100.00,South,184,3.0,5.0,62,0.00,,,-99.99,,2013-01-04 00:03:00,
2013-01-03 17:12:00,8.0,-3.0,-100.00,SSE,167,2.0,5.0,63,0.00,,,-99.99,,2013-01-04 00:12:00,
2013-01-03 17:22:00,7.0,-4.0,-100.00,SW,216,2.0,6.0,60,0.00,,,-99.99,,2013-01-04 00:22:00,
2013-01-03 17:32:00,5.0,-5.0,-100.00,SE,144,2.0,4.0,62,0.00,,,-99.99,,2013-01-04 00:32:00,
2013-01-03 17:42:00,5.0,-4.0,-100.00,SE,133,2.0,4.0,65,0.00,,,-99.99,,2013-01-04 00:42:00,
2013-01-03 17:52:00,4.0,-3.0,-100.00,ESE,103,2.0,4.0,72,0.00,,,-99.99,,2013-01-04 00:52:00,
2013-01-03 18:02:00,4.0,-3.0,-100.00,ESE,113,2.0,7.0,72,0.00,,,-99.99,,2013-01-04 01:02:00,
2013-01-03 18:12:00,4.0,-3.0,-100.00,ESE,116,2.0,7.0,71,0.00,,,-99.99,,2013-01-04 01:12:00,
2013-01-03 18:22:00,5.0,-2.0,-100.00,SE,130,2.0,4.0,70,0.00,,,-99.99,,2013-01-04 01:22:00,
2013-01-03 18:32:00,6.0,-4.0,-100.00,South,175,2.0,4.0,64,0.00,,,-99.99,,2013-01-04 01:32:00,
2013-01-03 18:42:00,5.0,-4.0,-100.00,SSW,192,1.0,4.0,66,0.00,,,-99.99,,2013-01-04 01:42:00,
2013-01-03 18:52:00,1.0,-6.0,-100.00,West,267,3.0,6.0,71,0.00,,,-99.99,,2013-01-04 01:52:00,
2013-01-03 19:02:00,4.0,-6.0,-100.00,SW,234,2.0,4.0,64,0.00,,,-99.99,,2013-01-04 02:02:00,
2013-01-03 19:12:00,5.0,-4.0,-100.00,SW,217,2.0,4.0,65,0.00,,,-99.99,,2013-01-04 02:12:00,
2013-01-03 19:22:00,2.0,-8.0,-100.00,WSW,257,2.0,3.0,64,0.00,,,-99.99,,2013-01-04 02:22:00,
2013-01-03 19:32:00,2.0,-6.0,-100.00,WSW,243,2.0,4.0,66,0.00,,,-99.99,,2013-01-04 02:32:00,
2013-01-03 19:42:00,1.0,-6.0,-100.00,WSW,253,2.0,4.0,71,0.00,,,-99.99,,2013-01-04 02:42:00,
2013-01-03 19:52:00,2.0,-6.0,-100.00,SW,233,3.0,4.0,66,0.00,,,-99.99,,2013-01-04 02:52:00,
2013-01-03 20:02:00,4.0,-5.0,-100.00,SW,233,3.0,6.0,65,0.00,,,-99.99,,2013-01-04 03:02:00,
2013-01-03 20:12:00,5.0,-4.0,-100.00,SW,216,4.0,6.0,67,0.00,,,-99.99,,2013-01-04 03:12:00,
2013-01-03 20:22:00,0.0,-9.0,-100.00,WSW,244,3.0,4.0,63,0.00,,,-99.99,,2013-01-04 03:22:00,
2013-01-03 20:32:00,-1.0,-8.0,-100.00,WSW,258,3.0,4.0,71,0.00,,,-99.99,,2013-01-04 03:32:00,
2013-01-03 20:42:00,-1.0,-8.0,-100.00,WSW,246,3.0,4.0,70,0.00,,,-99.99,,2013-01-04 03:42:00,
2013-01-03 20:52:00,5.0,-3.0,-100.00,SW,226,4.0,6.0,68,0.00,,,-99.99,,2013-01-04 03:52:00,
2013-01-03 21:02:00,3.0,-6.0,-100.00,WSW,248,3.0,5.0,67,0.00,,,-99.99,,2013-01-04 04:02:00,
2013-01-03 21:12:00,0.0,-10.0,-100.00,WSW,258,4.0,5.0,63,0.00,,,-99.99,,2013-01-04 04:12:00,
2013-01-03 21:22:00,2.0,-7.0,-100.00,WNW,282,2.0,4.0,68,0.00,,,-99.99,,2013-01-04 04:22:00,
2013-01-03 21:32:00,2.0,-7.0,-100.00,West,277,3.0,5.0,65,0.00,,,-99.99,,2013-01-04 04:32:00,
2013-01-03 21:42:00,1.0,-8.0,-100.00,WNW,282,4.0,6.0,66,0.00,,,-99.99,,2013-01-04 04:42:00,
2013-01-03 21:52:00,2.0,-7.0,-100.00,WNW,288,4.0,6.0,63,0.00,,,-99.99,,2013-01-04 04:52:00,
2013-01-03 22:03:00,3.0,-7.0,-100.00,WNW,285,4.0,6.0,65,0.00,,,-99.99,,2013-01-04 05:03:00,
2013-01-03 22:12:00,4.0,-6.0,-100.00,WNW,285,4.0,6.0,63,0.00,,,-99.99,,2013-01-04 05:12:00,
2013-01-03 22:22:00,4.0,-6.0,-100.00,West,271,3.0,5.0,63,0.00,,,-99.99,,2013-01-04 05:22:00,
2013-01-03 22:33:00,5.0,-5.0,-100.00,West,264,4.0,6.0,61,0.00,,,-99.99,,2013-01-04 05:33:00,
2013-01-03 22:42:00,4.0,-6.0,-100.00,West,267,4.0,5.0,61,0.00,,,-99.99,,2013-01-04 05:42:00,
2013-01-03 22:52:00,5.0,-7.0,-100.00,West,272,4.0,6.0,58,0.00,,,-99.99,,2013-01-04 05:52:00,
2013-01-03 23:02:00,-1.0,-9.0,-100.00,West,268,4.0,6.0,70,0.00,,,-99.99,,2013-01-04 06:02:00,
2013-01-03 23:12:00,-1.0,-9.0,-100.00,West,274,4.0,6.0,68,0.00,,,-99.99,,2013-01-04 06:12:00,
2013-01-03 23:22:00,2.0,-7.0,-100.00,WNW,287,7.0,9.0,63,0.00,,,-99.99,,2013-01-04 06:22:00,
2013-01-03 23:32:00,2.0,-8.0,-100.00,West,281,6.0,7.0,63,0.00,,,-99.99,,2013-01-04 06:32:00,
2013-01-03 23:42:00,5.0,-5.0,-100.00,WNW,302,5.0,6.0,65,0.00,,,-99.99,,2013-01-04 06:42:00,
2013-01-03 23:52:00,4.0,-6.0,-100.00,NW,313,4.0,7.0,63,0.00,,,-99.99,,2013-01-04 06:52:00,